Time;durP1;ratioP1;P1;durP2;ratioP2;P2;SDS_P1;SDS_P2;PMS_P1;PMS_P2;Temp;Humidity;BMP_temperature;BMP_pressure;BME280_temperature;BME280_humidity;BME280_pressure;Samples;Min_cycle;Max_cycle;Signal;HPM_P1;HPM_P2
2022/10/15 00:01:16;;;;;;;0.20;0.20;;;;;;;19.14;69.86;96453.59;4941553;28;20360;-83
2022/10/15 00:03:43;;;;;;;0.20;0.20;;;;;;;19.30;69.59;96456.44;4976183;28;20241;-82
2022/10/15 00:06:11;;;;;;;0.30;0.30;;;;;;;19.12;70.05;96447.81;4923102;28;20362;-82
2022/10/15 00:08:38;;;;;;;0.43;0.35;;;;;;;19.35;69.59;96455.50;4934821;28;20353;-82
2022/10/15 00:11:05;;;;;;;0.73;0.20;;;;;;;19.33;69.59;96447.09;4952176;28;20265;-82
2022/10/15 00:13:32;;;;;;;0.22;0.20;;;;;;;19.38;69.42;96458.28;4941947;28;20308;-83
2022/10/15 00:15:57;;;;;;;0.68;0.30;;;;;;;19.34;69.77;96453.94;4923838;28;20199;-82
2022/10/15 00:18:22;;;;;;;1.17;0.20;;;;;;;19.28;70.05;96445.44;4937720;28;20713;-83
2022/10/15 00:20:48;;;;;;;0.95;0.30;;;;;;;19.34;69.95;96461.88;4946331;28;20307;-82
2022/10/15 00:23:13;;;;;;;1.00;0.28;;;;;;;19.34;69.87;96451.31;4929148;28;20239;-82
2022/10/15 00:25:41;;;;;;;1.98;0.28;;;;;;;19.36;69.98;96457.03;4945058;28;20144;-83
2022/10/15 00:28:06;;;;;;;1.65;0.30;;;;;;;19.40;69.85;96456.09;4955271;28;20169;-82
2022/10/15 00:30:34;;;;;;;0.20;0.20;;;;;;;19.47;69.75;96458.22;4930318;28;20660;-82
2022/10/15 00:32:59;;;;;;;0.47;0.30;;;;;;;19.43;69.58;96447.53;4925320;28;20104;-83
2022/10/15 00:35:25;;;;;;;0.20;0.20;;;;;;;19.43;69.72;96462.59;4944221;28;20254;-82
2022/10/15 00:37:50;;;;;;;0.95;0.40;;;;;;;19.44;69.78;96445.66;4942756;28;20192;-83
2022/10/15 00:40:16;;;;;;;0.52;0.30;;;;;;;19.50;69.83;96451.53;4927637;28;20196;-83
2022/10/15 00:42:41;;;;;;;2.47;0.63;;;;;;;19.43;69.89;96449.38;4960636;28;20242;-83
2022/10/15 00:45:12;;;;;;;1.00;0.30;;;;;;;19.37;70.03;96446.16;4928759;28;20170;-84
2022/10/15 00:47:47;;;;;;;1.25;0.60;;;;;;;19.48;69.37;96448.44;4930006;28;20120;-83
2022/10/15 00:50:16;;;;;;;;;;;;;;;19.20;70.78;96451.53;4940735;28;20157;-82
2022/10/15 00:52:43;;;;;;;0.93;0.40;;;;;;;19.41;69.96;96462.13;4955170;28;20052;-83
2022/10/15 00:55:13;;;;;;;0.77;0.40;;;;;;;19.39;70.06;96457.16;4947066;28;20109;-82
2022/10/15 00:57:39;;;;;;;2.88;0.47;;;;;;;19.55;69.74;96457.41;4954470;28;20282;-82
2022/10/15 01:00:08;;;;;;;1.45;0.60;;;;;;;19.51;69.66;96458.34;4921883;28;20650;-82
2022/10/15 01:02:33;;;;;;;0.65;0.50;;;;;;;19.49;70.15;96460.56;4915014;28;20194;-82
2022/10/15 01:04:59;;;;;;;0.60;0.50;;;;;;;19.55;69.93;96452.13;4914600;28;20619;-83
2022/10/15 01:07:24;;;;;;;1.75;0.52;;;;;;;19.50;69.98;96441.75;4932732;28;20248;-83
2022/10/15 01:09:50;;;;;;;1.30;0.60;;;;;;;19.49;70.26;96445.47;4919514;28;20212;-83
2022/10/15 01:12:33;;;;;;;0.77;0.77;;;;;;;19.43;70.27;96452.81;4938343;28;20316;-83
2022/10/15 01:15:20;;;;;;;2.28;0.73;;;;;;;19.46;70.03;96448.75;4976624;28;20158;-82
2022/10/15 01:18:02;;;;;;;1.30;0.40;;;;;;;19.08;71.18;96444.28;4929671;28;20600;-82
2022/10/15 01:20:49;;;;;;;1.02;0.52;;;;;;;19.32;70.72;96446.34;4935129;28;20154;-83
2022/10/15 01:23:54;;;;;;;3.42;0.77;;;;;;;19.29;70.76;96446.97;4939118;28;20216;-83
2022/10/15 01:27:04;;;;;;;1.25;0.50;;;;;;;19.37;70.53;96442.75;4948501;28;20285;-83
2022/10/15 01:29:51;;;;;;;0.52;0.50;;;;;;;19.44;70.46;96437.75;4935262;28;20666;-82
2022/10/15 01:32:19;;;;;;;1.77;1.00;;;;;;;19.68;69.66;96452.19;4934900;28;20648;-82
2022/10/15 01:35:03;;;;;;;0.40;0.40;;;;;;;19.56;70.03;96445.75;4951188;28;20579;-83
2022/10/15 01:37:37;;;;;;;0.63;0.50;;;;;;;19.51;70.23;96445.91;4963636;28;20612;-83
2022/10/15 01:40:20;;;;;;;1.80;0.50;;;;;;;19.59;70.00;96452.25;4951194;28;20406;-82
2022/10/15 01:42:58;;;;;;;0.65;0.50;;;;;;;19.63;69.89;96450.50;4944536;28;20234;-82
2022/10/15 01:45:33;;;;;;;2.30;0.50;;;;;;;19.56;69.93;96445.75;4933590;28;20157;-82
2022/10/15 01:48:03;;;;;;;1.15;0.40;;;;;;;19.65;70.08;96449.13;4934878;28;20412;-83
2022/10/15 01:50:29;;;;;;;0.82;0.30;;;;;;;19.68;69.87;96446.91;4918421;28;20291;-83
2022/10/15 01:52:56;;;;;;;0.82;0.30;;;;;;;19.82;69.75;96439.53;4950686;28;20202;-82
2022/10/15 01:55:23;;;;;;;0.93;0.40;;;;;;;19.81;69.56;96438.00;4915254;28;20409;-83
2022/10/15 01:57:48;;;;;;;1.48;0.50;;;;;;;19.85;69.58;96435.50;4934260;28;20149;-81
2022/10/15 02:00:14;;;;;;;3.05;0.50;;;;;;;19.76;69.96;96431.03;4938832;28;20261;-81
2022/10/15 02:02:39;;;;;;;0.90;0.32;;;;;;;19.82;69.77;96436.91;4951870;28;20249;-82
2022/10/15 02:05:06;;;;;;;1.27;0.57;;;;;;;19.82;69.59;96437.66;4918112;28;20626;-82
2022/10/15 02:07:39;;;;;;;0.28;0.28;;;;;;;19.75;69.78;96441.91;4936795;28;20634;-81
2022/10/15 02:10:07;;;;;;;0.90;0.30;;;;;;;19.85;69.90;96444.19;4938710;28;20251;-81
2022/10/15 02:13:00;;;;;;;1.27;0.30;;;;;;;19.75;69.70;96437.41;4951189;28;20204;-82
2022/10/15 02:15:29;;;;;;;0.98;0.30;;;;;;;19.75;69.79;96437.41;4946351;28;20238;-82
2022/10/15 02:18:03;;;;;;;1.52;0.30;;;;;;;19.86;69.94;96437.81;4949555;28;20263;-82
2022/10/15 02:20:47;;;;;;;1.55;0.30;;;;;;;19.75;69.44;96436.63;4950230;28;20288;-82
2022/10/15 02:23:17;;;;;;;0.33;0.30;;;;;;;19.78;69.29;96436.00;4933591;28;20279;-82
2022/10/15 02:25:43;;;;;;;0.85;0.30;;;;;;;19.89;69.54;96444.31;4934018;28;20278;-82
2022/10/15 02:28:10;;;;;;;0.50;0.50;;;;;;;19.86;69.58;96437.81;4950505;28;20192;-82
2022/10/15 02:30:36;;;;;;;0.50;0.25;;;;;;;19.85;69.62;96446.06;4936088;28;20188;-82
2022/10/15 02:33:02;;;;;;;0.80;0.20;;;;;;;19.80;69.99;96452.28;4949828;28;20184;-82
2022/10/15 02:35:27;;;;;;;0.25;0.20;;;;;;;19.87;69.79;96455.19;4939800;28;20298;-82
2022/10/15 02:37:53;;;;;;;1.15;0.40;;;;;;;19.94;69.74;96455.44;4933673;28;20601;-83
2022/10/15 02:40:26;;;;;;;0.57;0.30;;;;;;;19.85;69.58;96448.69;4914801;28;20193;-83
2022/10/15 02:42:52;;;;;;;0.50;0.40;;;;;;;19.96;69.53;96453.28;4931910;28;20238;-83
2022/10/15 02:45:18;;;;;;;1.10;0.30;;;;;;;20.08;69.30;96454.41;4921445;28;20654;-81
2022/10/15 02:47:43;;;;;;;0.85;0.30;;;;;;;20.10;69.31;96449.56;4933307;28;20646;-82
2022/10/15 02:50:09;;;;;;;1.27;0.50;;;;;;;20.12;69.34;96458.75;4970372;28;20181;-82
2022/10/15 02:52:34;;;;;;;0.20;0.20;;;;;;;20.17;69.23;96455.91;4919789;28;20283;-81
2022/10/15 02:54:59;;;;;;;0.25;0.10;;;;;;;20.22;69.10;96454.94;4933139;28;20415;-82
2022/10/15 02:57:25;;;;;;;1.65;0.25;;;;;;;20.18;69.14;96460.06;4949657;28;20199;-82
2022/10/15 02:59:50;;;;;;;0.22;0.22;;;;;;;20.23;68.83;96456.47;4935767;28;20169;-82
2022/10/15 03:02:15;;;;;;;0.28;0.25;;;;;;;20.17;69.11;96465.72;4953270;28;20271;-81
2022/10/15 03:04:41;;;;;;;1.20;0.30;;;;;;;20.10;69.16;96460.16;4922086;28;20270;-81
2022/10/15 03:07:06;;;;;;;0.20;0.20;;;;;;;19.98;69.19;96466.13;4949897;28;20193;-79
2022/10/15 03:09:31;;;;;;;0.20;0.20;;;;;;;20.00;68.81;96467.38;4949532;28;20202;-80
2022/10/15 03:11:57;;;;;;;0.50;0.50;;;;;;;19.89;69.17;96468.84;4936503;28;20759;-81
2022/10/15 03:14:22;;;;;;;0.38;0.20;;;;;;;19.83;69.32;96467.50;4937265;28;20331;-79
2022/10/15 03:16:48;;;;;;;0.55;0.20;;;;;;;19.89;69.08;96470.72;4933705;28;20263;-82
2022/10/15 03:19:13;;;;;;;0.10;0.10;;;;;;;19.87;69.05;96471.03;4949185;28;20670;-80
2022/10/15 03:21:38;;;;;;;1.02;0.17;;;;;;;19.93;68.91;96472.41;4935213;28;20188;-80
2022/10/15 03:24:04;;;;;;;0.20;0.20;;;;;;;19.87;68.83;96478.97;4935776;28;20565;-83
2022/10/15 03:26:29;;;;;;;0.40;0.20;;;;;;;19.90;68.93;96480.97;4933240;28;20932;-82
2022/10/15 03:28:55;;;;;;;0.30;0.30;;;;;;;19.87;68.63;96480.84;4932887;28;20200;-82
2022/10/15 03:31:20;;;;;;;0.28;0.28;;;;;;;19.83;68.89;96480.72;4931625;28;20309;-82
2022/10/15 03:33:45;;;;;;;0.85;0.35;;;;;;;19.77;68.87;96479.34;4932879;28;20291;-82
2022/10/15 03:36:11;;;;;;;0.85;0.32;;;;;;;19.87;68.63;96489.53;4932584;28;20272;-82
2022/10/15 03:38:36;;;;;;;0.40;0.35;;;;;;;19.91;68.27;96490.47;4949057;28;20277;-81
2022/10/15 03:41:01;;;;;;;0.40;0.40;;;;;;;19.87;68.43;96497.47;4909655;28;20885;-81
2022/10/15 03:43:27;;;;;;;0.63;0.25;;;;;;;19.77;68.71;96490.69;4916408;28;20332;-83
2022/10/15 03:45:52;;;;;;;1.10;0.38;;;;;;;19.68;69.09;96497.09;4928811;28;20622;-82
2022/10/15 03:48:18;;;;;;;0.40;0.40;;;;;;;19.70;69.07;96486.97;4948229;28;20189;-82
2022/10/15 03:50:44;;;;;;;0.40;0.40;;;;;;;19.81;68.49;96496.13;4932509;28;20298;-82
2022/10/15 03:53:10;;;;;;;0.63;0.52;;;;;;;19.84;68.46;96495.47;4932746;28;20642;-82
2022/10/15 03:55:35;;;;;;;0.40;0.40;;;;;;;19.83;68.36;96496.56;4936210;28;20316;-84
2022/10/15 03:58:01;;;;;;;0.77;0.63;;;;;;;19.83;68.76;96496.56;4920052;28;20564;-83
2022/10/15 04:00:26;;;;;;;0.47;0.47;;;;;;;19.87;68.57;96502.75;4932227;28;20281;-83
2022/10/15 04:02:51;;;;;;;0.75;0.60;;;;;;;19.88;68.65;96511.44;4915447;28;20207;-83
2022/10/15 04:05:17;;;;;;;0.60;0.60;;;;;;;19.87;68.58;96513.31;4916311;28;20167;-83
2022/10/15 04:07:42;;;;;;;1.58;0.70;;;;;;;19.84;68.46;96524.50;4915965;28;20161;-83
2022/10/15 04:10:08;;;;;;;1.42;0.70;;;;;;;19.71;68.80;96520.25;4933305;28;20268;-83
2022/10/15 04:12:33;;;;;;;1.45;0.88;;;;;;;19.76;68.87;96515.56;4916262;28;20217;-83
2022/10/15 04:14:59;;;;;;;1.42;0.60;;;;;;;19.80;68.55;96519.09;4949837;28;20298;-83
2022/10/15 04:17:24;;;;;;;0.98;0.80;;;;;;;19.72;69.11;96521.75;4948107;28;20157;-82
2022/10/15 04:19:49;;;;;;;0.77;0.77;;;;;;;19.71;68.90;96528.16;4932129;28;20795;-82
2022/10/15 04:22:15;;;;;;;1.30;1.20;;;;;;;19.70;68.60;96518.69;4915899;28;20211;-83
2022/10/15 04:24:40;;;;;;;1.58;1.30;;;;;;;19.70;68.79;96529.25;4948134;28;20298;-83
2022/10/15 04:27:06;;;;;;;2.17;1.25;;;;;;;19.64;68.87;96521.50;4932369;28;20173;-83
2022/10/15 04:29:31;;;;;;;2.08;1.40;;;;;;;19.67;68.68;96527.22;4915735;28;20246;-83
2022/10/15 04:31:57;;;;;;;1.75;1.30;;;;;;;19.60;68.95;96528.53;4953241;28;20189;-82
2022/10/15 04:34:22;;;;;;;1.27;1.17;;;;;;;19.56;69.10;96530.22;4971437;28;20203;-82
2022/10/15 04:36:47;;;;;;;2.65;1.75;;;;;;;19.53;69.25;96528.22;4950117;28;20325;-83
2022/10/15 04:39:13;;;;;;;3.80;2.10;;;;;;;19.58;69.00;96532.56;4919757;28;20200;-82
2022/10/15 04:41:38;;;;;;;2.60;2.22;;;;;;;19.62;68.59;96528.19;4918776;28;20094;-82
2022/10/15 04:44:04;;;;;;;2.90;2.20;;;;;;;19.52;68.94;96533.81;4917177;28;20637;-84
2022/10/15 04:46:36;;;;;;;2.72;2.45;;;;;;;19.44;69.21;96535.41;4917240;28;20294;-84
2022/10/15 04:49:02;;;;;;;3.38;2.72;;;;;;;19.56;68.77;96532.09;4947616;28;20247;-83
2022/10/15 04:51:27;;;;;;;5.00;3.00;;;;;;;19.56;68.97;96534.75;4916106;28;20149;-83
2022/10/15 04:53:53;;;;;;;6.85;3.20;;;;;;;19.46;68.83;96531.34;4948147;28;20455;-84
2022/10/15 04:56:21;;;;;;;3.63;2.40;;;;;;;19.44;68.87;96535.41;4915402;28;20309;-84
2022/10/15 04:58:48;;;;;;;2.50;2.10;;;;;;;19.53;68.54;96541.44;4931354;28;20282;-83
2022/10/15 05:01:16;;;;;;;2.83;2.17;;;;;;;19.47;68.99;96542.72;4946562;28;20348;-83
2022/10/15 05:03:43;;;;;;;2.45;2.05;;;;;;;19.49;68.82;96545.03;4946898;28;20203;-84
2022/10/15 05:06:10;;;;;;;2.70;2.33;;;;;;;19.42;68.46;96540.25;4914859;28;20693;-83
2022/10/15 05:08:36;;;;;;;2.85;1.90;;;;;;;19.41;69.10;96543.97;4914794;28;20306;-83
2022/10/15 05:11:07;;;;;;;3.67;2.28;;;;;;;19.39;68.78;96554.06;4930826;28;20291;-84
2022/10/15 05:13:33;;;;;;;2.78;1.70;;;;;;;19.41;69.05;96546.59;4930585;28;20731;-83
2022/10/15 05:16:19;;;;;;;3.20;1.80;;;;;;;19.22;69.39;96553.03;4914641;28;20288;-83
2022/10/15 05:18:48;;;;;;;1.98;1.60;;;;;;;19.36;68.93;96550.19;4931019;28;20212;-83
2022/10/15 05:21:13;;;;;;;4.30;1.80;;;;;;;19.39;68.95;96557.47;4935532;28;20274;-83
2022/10/15 05:23:39;;;;;;;3.97;1.90;;;;;;;19.41;69.06;96555.28;4931284;28;20309;-83
2022/10/15 05:26:07;;;;;;;3.05;2.00;;;;;;;19.25;69.22;96562.97;4931987;28;20358;-84
2022/10/15 05:28:33;;;;;;;3.33;2.20;;;;;;;19.38;69.18;96563.88;4914393;28;20256;-83
2022/10/15 05:31:06;;;;;;;4.80;2.60;;;;;;;19.15;69.54;96567.81;4951078;28;20739;-83
2022/10/15 05:33:31;;;;;;;2.92;2.25;;;;;;;19.36;69.34;96568.66;4914819;28;20166;-84
2022/10/15 05:35:56;;;;;;;3.72;2.20;;;;;;;19.27;68.99;96573.97;4948158;28;20227;-83
2022/10/15 05:38:22;;;;;;;2.42;2.20;;;;;;;19.24;69.02;96577.28;4932336;28;20634;-84
2022/10/15 05:40:48;;;;;;;3.60;2.20;;;;;;;19.22;69.27;96578.66;4931864;28;20282;-84
2022/10/15 05:43:13;;;;;;;2.17;1.70;;;;;;;19.26;68.84;96579.56;4931254;28;20148;-84
2022/10/15 05:45:39;;;;;;;2.17;1.80;;;;;;;19.17;69.18;96576.19;4915446;28;20271;-83
2022/10/15 05:48:05;;;;;;;2.30;1.60;;;;;;;19.10;69.05;96579.31;4915500;28;20579;-83
2022/10/15 05:50:30;;;;;;;2.28;1.65;;;;;;;19.14;68.85;96585.53;4915828;28;20204;-83
2022/10/15 05:52:56;;;;;;;1.77;1.42;;;;;;;19.20;68.70;96580.84;4915391;28;20661;-84
2022/10/15 05:55:21;;;;;;;2.00;1.52;;;;;;;19.17;68.38;96584.09;4921738;28;20173;-84
2022/10/15 05:57:46;;;;;;;2.55;1.42;;;;;;;19.22;68.53;96595.25;4935905;28;20286;-84
2022/10/15 06:00:12;;;;;;;2.13;1.60;;;;;;;19.16;68.44;96590.47;4918949;28;20204;-83
2022/10/15 06:02:38;;;;;;;2.00;1.55;;;;;;;19.10;68.54;96592.50;4952081;28;20598;-82
2022/10/15 06:05:05;;;;;;;2.15;1.63;;;;;;;19.13;68.27;96589.25;4935829;28;20184;-84
2022/10/15 06:07:31;;;;;;;2.88;1.88;;;;;;;19.09;68.31;96591.72;4919199;28;20307;-83
2022/10/15 06:09:56;;;;;;;2.05;1.80;;;;;;;19.11;68.39;96603.81;4919259;28;20197;-83
2022/10/15 06:12:21;;;;;;;2.95;2.13;;;;;;;19.12;68.70;96594.81;4921949;28;20193;-83
2022/10/15 06:14:47;;;;;;;2.88;1.80;;;;;;;19.14;68.61;96598.72;4935353;28;20196;-84
2022/10/15 06:17:12;;;;;;;2.85;2.45;;;;;;;19.11;68.58;96596.69;4935560;28;20230;-84
2022/10/15 06:19:37;;;;;;;4.95;1.90;;;;;;;19.08;68.65;96598.09;4951120;28;20177;-84
2022/10/15 06:22:03;;;;;;;3.35;2.35;;;;;;;19.10;68.47;96608.34;4938679;28;20212;-83
2022/10/15 06:24:28;;;;;;;3.88;2.33;;;;;;;19.08;69.01;96611.28;4918115;28;20189;-83
2022/10/15 06:26:53;;;;;;;2.88;2.22;;;;;;;19.04;69.15;96615.66;4917604;28;20702;-81
2022/10/15 06:29:19;;;;;;;4.50;2.97;;;;;;;18.96;69.23;96613.78;4934453;28;20197;-83
2022/10/15 06:31:44;;;;;;;3.20;2.78;;;;;;;19.03;68.84;96618.59;4919118;28;20165;-82
2022/10/15 06:34:09;;;;;;;6.22;2.90;;;;;;;19.08;69.00;96621.84;4934413;28;20360;-82
2022/10/15 06:36:35;;;;;;;3.55;2.67;;;;;;;18.97;69.37;96619.84;4934936;28;20226;-82
2022/10/15 06:39:01;;;;;;;3.53;2.80;;;;;;;19.02;69.04;96622.31;4919133;28;20371;-82
2022/10/15 06:41:26;;;;;;;4.30;2.72;;;;;;;18.99;69.25;96618.44;4934354;28;20629;-83
2022/10/15 06:43:53;;;;;;;3.42;2.35;;;;;;;19.00;69.26;96625.25;4936231;28;20241;-83
2022/10/15 06:46:18;;;;;;;3.97;2.67;;;;;;;19.04;69.06;96613.00;4934923;28;20236;-81
2022/10/15 06:48:44;;;;;;;3.67;2.20;;;;;;;19.01;69.17;96626.06;4915077;28;20212;-82
2022/10/15 06:51:10;;;;;;;2.90;2.40;;;;;;;18.92;69.30;96631.34;4916965;28;20174;-83
2022/10/15 06:53:35;;;;;;;2.42;2.10;;;;;;;18.90;69.61;96636.13;4953146;28;20319;-83
2022/10/15 06:56:02;;;;;;;3.25;2.15;;;;;;;19.09;68.70;96638.47;4943363;28;20219;-82
2022/10/15 06:58:28;;;;;;;4.00;2.40;;;;;;;19.05;69.03;96638.28;4920757;28;20148;-82
2022/10/15 07:01:01;;;;;;;4.57;2.60;;;;;;;18.97;69.10;96636.44;4923554;28;20637;-82
2022/10/15 07:03:28;;;;;;;2.90;2.60;;;;;;;19.07;68.93;96644.06;4935605;28;20169;-81
2022/10/15 07:05:53;;;;;;;3.22;2.17;;;;;;;19.12;68.55;96639.69;4922126;28;20689;-83
2022/10/15 07:08:20;;;;;;;5.47;2.47;;;;;;;19.17;68.63;96640.28;4919593;28;20211;-82
2022/10/15 07:10:46;;;;;;;3.78;2.45;;;;;;;19.20;68.78;96644.94;4935126;28;20241;-82
2022/10/15 07:13:11;;;;;;;3.25;2.35;;;;;;;19.14;68.94;96651.50;4932211;28;20220;-83
2022/10/15 07:15:36;;;;;;;3.00;2.33;;;;;;;19.15;68.72;96647.75;4922161;28;20217;-82
2022/10/15 07:18:02;;;;;;;3.03;2.30;;;;;;;19.18;68.69;96662.19;4937033;28;20166;-84
2022/10/15 07:20:29;;;;;;;5.60;3.35;;;;;;;19.07;68.85;96657.25;4918809;28;20275;-84
2022/10/15 07:22:59;;;;;;;3.05;2.72;;;;;;;18.90;69.64;96650.13;4940366;28;20470;-83
2022/10/15 07:25:25;;;;;;;2.38;2.17;;;;;;;19.09;68.87;96651.66;4926008;28;20645;-83
2022/10/15 07:27:50;;;;;;;3.33;2.25;;;;;;;19.21;68.67;96658.91;4922873;28;20173;-83
2022/10/15 07:30:16;;;;;;;4.65;2.75;;;;;;;19.01;69.39;96663.75;4924390;28;20554;-83
2022/10/15 07:32:42;;;;;;;3.50;3.05;;;;;;;19.10;68.99;96658.47;4926532;28;20272;-82
2022/10/15 07:35:08;;;;;;;4.10;2.83;;;;;;;19.11;69.23;96661.88;4953595;28;20294;-82
2022/10/15 07:37:33;;;;;;;3.42;2.70;;;;;;;19.09;69.05;96656.94;4939371;28;20212;-84
2022/10/15 07:39:59;;;;;;;3.45;2.95;;;;;;;19.03;69.38;96663.44;4940101;28;20729;-83
2022/10/15 07:42:24;;;;;;;3.15;2.67;;;;;;;19.16;69.19;96659.88;4937344;28;20169;-83
2022/10/15 07:44:50;;;;;;;3.00;2.70;;;;;;;19.21;69.02;96659.72;4940013;28;20357;-82
2022/10/15 07:47:15;;;;;;;4.03;2.55;;;;;;;19.29;68.87;96652.84;4943182;28;20329;-82
2022/10/15 07:49:41;;;;;;;2.58;2.30;;;;;;;19.21;69.10;96657.06;4958990;28;20210;-82
2022/10/15 07:52:07;;;;;;;4.32;2.28;;;;;;;19.14;69.40;96659.41;4982539;28;20187;-82
2022/10/15 07:54:33;;;;;;;2.90;2.38;;;;;;;19.32;68.83;96662.78;4939310;28;20246;-82
2022/10/15 07:56:58;;;;;;;3.95;2.30;;;;;;;19.24;69.54;96661.72;5045274;22;20205;-82
2022/10/15 07:59:23;;;;;;;3.33;2.75;;;;;;;19.26;69.44;96659.53;4922018;28;20192;-84
2022/10/15 08:01:50;;;;;;;2.83;2.53;;;;;;;19.31;69.20;96669.16;4944709;28;20751;-83
2022/10/15 08:04:16;;;;;;;2.83;2.40;;;;;;;19.27;69.69;96674.28;5045741;22;20207;-84
2022/10/15 08:06:41;;;;;;;3.00;2.33;;;;;;;19.49;69.15;96672.53;4932679;28;20369;-83
2022/10/15 08:09:06;;;;;;;4.13;2.45;;;;;;;19.52;69.23;96673.75;4943569;28;20271;-82
2022/10/15 08:11:32;;;;;;;2.97;2.63;;;;;;;19.50;69.11;96671.47;4923576;28;20185;-83
2022/10/15 08:13:58;;;;;;;3.92;2.30;;;;;;;19.56;69.23;96666.78;4936296;28;20316;-83
2022/10/15 08:16:23;;;;;;;2.10;2.00;;;;;;;19.64;69.05;96666.00;4923090;28;20198;-83
2022/10/15 08:18:48;;;;;;;3.35;2.65;;;;;;;19.69;69.08;96672.94;4927074;28;20393;-82
2022/10/15 08:21:14;;;;;;;2.80;1.90;;;;;;;19.68;69.07;96672.19;4919342;28;20174;-83
2022/10/15 08:23:39;;;;;;;2.30;1.90;;;;;;;19.66;69.46;96671.72;4908830;28;20205;-84
2022/10/15 08:26:04;;;;;;;2.65;1.92;;;;;;;19.58;69.62;96675.16;4945870;28;20224;-82
2022/10/15 08:28:31;;;;;;;1.60;1.50;;;;;;;19.76;69.00;96675.94;4940057;28;20190;-83
2022/10/15 08:30:57;;;;;;;1.40;1.20;;;;;;;19.69;69.09;96670.31;4934482;28;20194;-84
2022/10/15 08:33:23;;;;;;;0.93;0.90;;;;;;;19.75;68.85;96671.72;4922174;28;20197;-82
2022/10/15 08:35:49;;;;;;;0.80;0.80;;;;;;;19.67;68.97;96672.50;4913796;28;20209;-84
2022/10/15 08:38:14;;;;;;;27.02;5.15;;;;;;;19.56;69.50;96675.47;4918155;28;20314;-83
2022/10/15 08:40:41;;;;;;;3.13;1.02;;;;;;;19.64;69.77;96679.19;4911957;28;20204;-83
2022/10/15 08:43:26;;;;;;;1.15;0.70;;;;;;;19.60;69.60;96686.97;4918725;28;20154;-83
2022/10/15 08:45:55;;;;;;;2.17;1.00;;;;;;;19.68;69.68;96687.25;4925807;28;20246;-81
2022/10/15 08:48:28;;;;;;;1.10;0.63;;;;;;;19.64;69.69;96687.88;4910845;28;20245;-82
